AMX426 MMUN-KMIA
Flight info
| Callsign | AMX426 |
|---|---|
| Flight time | N/A |
| Altitude | 37000 |
| Route | NUDAL1A NUDAL UV106 PODON UG765 MAXIM SNDBR3 |
| Aircraft | B738/M-SDE2E3FGHIRWXY/LB1 |
Departure
| Time | 2026-05-05 16:41 |
|---|---|
| Airport | Cancún International Airport (MMUN) |
Arrival
| Time | N/A |
|---|---|
| Airport | Miami International Airport (KMIA) |
| Time | Latitude | Longitude | Altitude | Speed | Heading |
|---|---|---|---|---|---|
| 2026-05-05 16:14 | 21.03925 | -86.87682 | 28 ft | 0 kts | 34° |
| 2026-05-05 16:26 | 21.03911 | -86.87692 | 29 ft | 3 kts | 26° |
| 2026-05-05 16:27 | 21.03892 | -86.87700 | 29 ft | 3 kts | 11° |
| 2026-05-05 16:27 | 21.03871 | -86.87702 | 30 ft | 3 kts | 351° |
| 2026-05-05 16:27 | 21.03853 | -86.87695 | 29 ft | 3 kts | 322° |
| 2026-05-05 16:27 | 21.03844 | -86.87687 | 30 ft | 1 kts | 304° |
| 2026-05-05 16:29 | 21.03845 | -86.87687 | 28 ft | 1 kts | 304° |
| 2026-05-05 16:30 | 21.03859 | -86.87710 | 30 ft | 7 kts | 304° |
| 2026-05-05 16:30 | 21.03906 | -86.87785 | 30 ft | 17 kts | 304° |
| 2026-05-05 16:30 | 21.03981 | -86.87905 | 29 ft | 21 kts | 303° |
| 2026-05-05 16:30 | 21.04060 | -86.88032 | 29 ft | 20 kts | 304° |
| 2026-05-05 16:31 | 21.04137 | -86.88155 | 29 ft | 20 kts | 303° |
| 2026-05-05 16:31 | 21.04211 | -86.88275 | 30 ft | 19 kts | 303° |
| 2026-05-05 16:31 | 21.04283 | -86.88389 | 30 ft | 18 kts | 305° |
| 2026-05-05 16:31 | 21.04354 | -86.88500 | 29 ft | 18 kts | 304° |
| 2026-05-05 16:32 | 21.04422 | -86.88607 | 29 ft | 17 kts | 304° |
| 2026-05-05 16:32 | 21.04486 | -86.88710 | 29 ft | 16 kts | 303° |
| 2026-05-05 16:32 | 21.04547 | -86.88809 | 29 ft | 16 kts | 303° |
| 2026-05-05 16:32 | 21.04601 | -86.88891 | 29 ft | 5 kts | 304° |
| 2026-05-05 16:33 | 21.04602 | -86.88894 | 29 ft | 0 kts | 303° |
| 2026-05-05 16:39 | 21.04603 | -86.88894 | 29 ft | 1 kts | 303° |
| 2026-05-05 16:39 | 21.04616 | -86.88916 | 29 ft | 7 kts | 303° |
| 2026-05-05 16:39 | 21.04638 | -86.88992 | 29 ft | 13 kts | 242° |
| 2026-05-05 16:39 | 21.04569 | -86.89057 | 31 ft | 13 kts | 215° |
| 2026-05-05 16:40 | 21.04506 | -86.89058 | 30 ft | 6 kts | 129° |
| 2026-05-05 16:40 | 21.04498 | -86.89044 | 31 ft | 2 kts | 122° |
| 2026-05-05 16:40 | 21.04470 | -86.88997 | 30 ft | 32 kts | 123° |
| 2026-05-05 16:40 | 21.04176 | -86.88527 | 34 ft | 118 kts | 124° |
| 2026-05-05 16:41 | 21.03582 | -86.87575 | 92 ft | 183 kts | 123° |
| 2026-05-05 16:41 | 21.02869 | -86.86427 | 1068 ft | 186 kts | 123° |
| 2026-05-05 16:41 | 21.02200 | -86.85234 | 2210 ft | 185 kts | 121° |
| 2026-05-05 16:41 | 21.01529 | -86.83987 | 2975 ft | 206 kts | 120° |
| 2026-05-05 16:42 | 21.00774 | -86.82573 | 3246 ft | 231 kts | 120° |
| 2026-05-05 16:42 | 20.99958 | -86.81043 | 3829 ft | 242 kts | 120° |
| 2026-05-05 16:42 | 20.99194 | -86.79391 | 4300 ft | 259 kts | 104° |
| 2026-05-05 16:42 | 20.99323 | -86.77443 | 4989 ft | 273 kts | 69° |
| 2026-05-05 16:43 | 21.00285 | -86.75681 | 6005 ft | 276 kts | 56° |
| 2026-05-05 16:43 | 21.01395 | -86.74014 | 6959 ft | 281 kts | 54° |
| 2026-05-05 16:43 | 21.02568 | -86.72313 | 7862 ft | 286 kts | 54° |
| 2026-05-05 16:43 | 21.03762 | -86.70585 | 8757 ft | 291 kts | 54° |
| 2026-05-05 16:44 | 21.04971 | -86.68828 | 9652 ft | 295 kts | 54° |
| 2026-05-05 16:44 | 21.06198 | -86.67033 | 10433 ft | 304 kts | 54° |
| 2026-05-05 16:44 | 21.07501 | -86.65119 | 10658 ft | 331 kts | 53° |
| 2026-05-05 16:44 | 21.08894 | -86.63064 | 11157 ft | 346 kts | 53° |
| 2026-05-05 16:45 | 21.10316 | -86.60957 | 11903 ft | 351 kts | 53° |
| 2026-05-05 16:45 | 21.11754 | -86.58821 | 12695 ft | 355 kts | 53° |
| 2026-05-05 16:45 | 21.13199 | -86.56668 | 13501 ft | 357 kts | 53° |
| 2026-05-05 16:45 | 21.14652 | -86.54501 | 14317 ft | 359 kts | 52° |
| 2026-05-05 16:46 | 21.16114 | -86.52321 | 15077 ft | 362 kts | 52° |
| 2026-05-05 16:46 | 21.17591 | -86.50116 | 15796 ft | 365 kts | 52° |
| 2026-05-05 16:46 | 21.19059 | -86.47925 | 16496 ft | 368 kts | 52° |
| 2026-05-05 16:46 | 21.20562 | -86.45679 | 17175 ft | 371 kts | 51° |
| 2026-05-05 16:47 | 21.22071 | -86.43424 | 17859 ft | 373 kts | 51° |
| 2026-05-05 16:47 | 21.23590 | -86.41152 | 18490 ft | 377 kts | 51° |
| 2026-05-05 16:47 | 21.25129 | -86.38851 | 19029 ft | 382 kts | 51° |
| 2026-05-05 16:47 | 21.26686 | -86.36522 | 19570 ft | 387 kts | 51° |
| 2026-05-05 16:48 | 21.28261 | -86.34163 | 20115 ft | 390 kts | 51° |
| 2026-05-05 16:48 | 21.29851 | -86.31782 | 20652 ft | 395 kts | 51° |
| 2026-05-05 16:48 | 21.31456 | -86.29376 | 21150 ft | 399 kts | 51° |
| 2026-05-05 16:48 | 21.33080 | -86.26941 | 21627 ft | 403 kts | 51° |
| 2026-05-05 16:49 | 21.34718 | -86.24485 | 22110 ft | 407 kts | 51° |
| 2026-05-05 16:49 | 21.36358 | -86.22025 | 22573 ft | 411 kts | 51° |
| 2026-05-05 16:49 | 21.38028 | -86.19517 | 23028 ft | 415 kts | 51° |
| 2026-05-05 16:49 | 21.39713 | -86.16985 | 23469 ft | 419 kts | 51° |
| 2026-05-05 16:50 | 21.41417 | -86.14422 | 23882 ft | 423 kts | 51° |
| 2026-05-05 16:50 | 21.43136 | -86.11838 | 24277 ft | 427 kts | 51° |
| 2026-05-05 16:50 | 21.44864 | -86.09236 | 24718 ft | 429 kts | 51° |
| 2026-05-05 16:50 | 21.46601 | -86.06622 | 25186 ft | 430 kts | 51° |
| 2026-05-05 16:51 | 21.48323 | -86.04029 | 25621 ft | 432 kts | 51° |
| 2026-05-05 16:51 | 21.50076 | -86.01388 | 26027 ft | 435 kts | 51° |
| 2026-05-05 16:51 | 21.51837 | -85.98734 | 26422 ft | 437 kts | 51° |
| 2026-05-05 16:51 | 21.53606 | -85.96068 | 26834 ft | 439 kts | 51° |
| 2026-05-05 16:52 | 21.55382 | -85.93389 | 27225 ft | 441 kts | 51° |
| 2026-05-05 16:52 | 21.57164 | -85.90699 | 27596 ft | 444 kts | 51° |
| 2026-05-05 16:52 | 21.58959 | -85.87989 | 27981 ft | 445 kts | 50° |
| 2026-05-05 16:52 | 21.60758 | -85.85272 | 28371 ft | 447 kts | 50° |
| 2026-05-05 16:53 | 21.62566 | -85.82540 | 28723 ft | 449 kts | 51° |
| 2026-05-05 16:53 | 21.64378 | -85.79798 | 29062 ft | 451 kts | 50° |
| 2026-05-05 16:53 | 21.66202 | -85.77038 | 29392 ft | 453 kts | 50° |
| 2026-05-05 16:53 | 21.68029 | -85.74271 | 29733 ft | 454 kts | 50° |
| 2026-05-05 16:54 | 21.69859 | -85.71500 | 30060 ft | 456 kts | 50° |
| 2026-05-05 16:54 | 21.71696 | -85.68717 | 30366 ft | 457 kts | 50° |
| 2026-05-05 16:54 | 21.73539 | -85.65923 | 30649 ft | 459 kts | 50° |
| 2026-05-05 16:54 | 21.75391 | -85.63116 | 30931 ft | 461 kts | 50° |
| 2026-05-05 16:55 | 21.77221 | -85.60339 | 31287 ft | 461 kts | 50° |
| 2026-05-05 16:55 | 21.79067 | -85.57534 | 31729 ft | 458 kts | 50° |
| 2026-05-05 16:55 | 21.80903 | -85.54743 | 32203 ft | 455 kts | 50° |
| 2026-05-05 16:55 | 21.82728 | -85.51966 | 32649 ft | 453 kts | 50° |
| 2026-05-05 16:56 | 21.84547 | -85.49199 | 33041 ft | 452 kts | 50° |